Latest Weather Observations for Pallamana

IDS60901

Issued at 4:31 am CDT Tuesday 21 January 2020 (issued every 10 minutes, with the page automatically refreshed every 10 minutes)

About weather observations | Map of Adelaide area stations | Latest observations for Adelaide area | Other Formats
Station Details ID: 024584 Name: PALLAMANA AERODROME Lat: -35.06 Lon: 139.23 Height: 45.0 m
Data from the previous 72 hours. | See also: Recent months at Pallamana
Date/Time
CDT
Temp
°C
App
Temp
°C
Dew
Point
°C
Rel
Hum
%
Delta-T
°C
Wind Press
QNH
hPa
Press
MSL
hPa
Rain since
9am
mm
Dir  Spd
km/h
Gust
km/h
Spd
kts
Gust
kts
21/04:30am 15.4 13.7 11.3 76 2.2 SSW 11 15 6 8 1012.3 1012.1 2.0
21/04:00am 15.4 13.7 11.3 76 2.2 SSW 11 13 6 7 1012.3 1012.1 2.0
21/03:30am 15.5 13.0 11.2 75 2.3 SSW 15 19 8 10 1012.3 1012.1 2.0
21/03:00am 15.6 12.6 10.7 72 2.6 SSW 17 20 9 11 1012.1 1011.9 2.0
21/02:30am 15.5 13.5 11.4 76 2.2 SSW 13 17 7 9 1012.2 1012.0 2.0
21/02:00am 15.5 13.9 11.4 76 2.2 SSW 11 13 6 7 1012.4 1012.2 2.0
21/01:30am 15.5 13.0 11.2 75 2.3 S 15 22 8 12 1012.5 1012.3 2.0
21/01:00am 15.4 12.0 11.3 76 2.2 SSW 20 26 11 14 1012.5 1012.3 2.0
21/12:30am 15.2 12.4 11.5 78 2.0 SSW 17 20 9 11 1013.0 1012.8 2.0
21/12:00am 15.4 11.6 11.1 75 2.3 SSW 22 28 12 15 1012.9 1012.7 2.0
 
Date/Time
CDT
Temp
°C
App
Temp
°C
Dew
Point
°C
Rel
Hum
%
Delta-T
°C
Wind Press
QNH
hPa
Press
MSL
hPa
Rain since
9am
mm
Dir  Spd
km/h
Gust
km/h
Spd
kts
Gust
kts
20/11:30pm 15.7 12.9 11.4 75 2.3 SSW 17 22 9 12 1013.2 1013.0 2.0
20/11:00pm 15.9 13.2 11.7 76 2.3 SSW 17 24 9 13 1013.3 1013.1 2.0
20/10:30pm 16.0 13.0 11.8 76 2.3 SSW 19 24 10 13 1013.4 1013.2 2.0
20/10:00pm 16.1 12.1 11.7 75 2.4 SSW 24 32 13 17 1013.2 1013.0 2.0
20/09:30pm 16.2 12.5 11.6 74 2.5 SSW 22 30 12 16 1013.1 1012.9 2.0
20/09:00pm 16.2 11.8 11.6 74 2.5 SSW 26 35 14 19 1012.7 1012.5 2.0
20/08:30pm 16.2 12.1 11.6 74 2.5 SSW 24 32 13 17 1012.5 1012.3 2.0
20/08:00pm 16.5 11.3 11.7 73 2.6 SSW 30 37 16 20 1012.2 1012.0 2.0
20/07:30pm 17.2 12.4 11.7 70 3.0 SSW 28 35 15 19 1011.9 1011.7 2.0
20/07:00pm 17.8 11.7 11.6 67 3.4 SSW 35 44 19 24 1011.6 1011.4 2.0
20/06:30pm 18.4 12.9 11.7 65 3.7 SSW 32 43 17 23 1011.5 1011.3 2.0
20/06:00pm 18.7 12.7 12.0 65 3.7 SSW 35 44 19 24 1011.1 1011.0 2.0
20/05:30pm 19.0 12.6 12.0 64 3.9 SSW 37 50 20 27 1011.1 1011.0 2.0
20/05:00pm 19.2 13.1 11.8 62 4.1 SSW 35 46 19 25 1010.9 1010.8 2.0
20/04:30pm 18.5 12.5 12.2 66 3.5 SSW 35 46 19 25 1010.8 1010.7 2.0
20/04:00pm 17.9 11.6 12.3 70 3.1 SSW 37 46 20 25 1011.0 1010.9 2.0
20/03:30pm 17.7 11.6 12.9 73 2.7 SSW 37 46 20 25 1011.1 1011.0 2.0
20/03:00pm 17.2 12.1 13.1 77 2.3 SSW 32 46 17 25 1011.1 1011.0 2.0
20/02:30pm 16.7 11.3 12.9 78 2.1 SW 33 43 18 23 1011.4 1011.2 2.0
20/02:00pm 16.6 11.4 13.4 81 1.8 SW 33 46 18 25 1011.1 1011.0 2.0
20/01:30pm 16.7 11.6 13.7 82 1.7 SSW 33 44 18 24 1010.9 1010.8 2.0
20/01:00pm 16.4 11.8 13.6 83 1.6 SSW 30 41 16 22 1011.1 1011.0 2.0
20/12:51pm 16.4 12.3 13.9 85 1.4 SSW 28 35 15 19 1011.1 1011.0 2.0
20/12:40pm 15.9 11.9 14.0 88 1.1 SSW 28 39 15 21 1011.3 1011.1 2.0
20/12:30pm 15.9 11.9 14.1 89 1.0 SSW 28 39 15 21 1011.3 1011.1 2.0
20/12:00pm 15.9 12.3 14.3 90 0.9 SSW 26 35 14 19 1011.3 1011.1 2.0
20/11:58am 15.8 11.8 14.2 90 0.9 SSW 28 35 15 19 1011.1 1011.0 2.0
20/11:44am 15.8 11.9 14.4 91 0.8 SSW 28 43 15 23 1010.9 1010.8 2.0
20/11:30am 15.8 11.6 14.6 93 0.7 SSW 30 37 16 20 1010.8 1010.7 2.0
20/11:00am 15.5 10.9 14.6 94 0.5 SSW 32 41 17 22 1010.6 1010.5 1.8
20/10:30am 15.3 11.0 14.4 94 0.5 SSW 30 39 16 21 1010.6 1010.5 1.2
20/10:00am 15.4 11.8 14.3 93 0.6 SSW 26 35 14 19 1010.5 1010.4 0.8
20/09:30am 15.3 12.5 14.4 94 0.5 SSW 22 33 12 18 1010.2 1010.1 0.2
20/09:00am 15.3 11.8 14.4 94 0.5 SSW 26 37 14 20 1010.0 1009.9 14.6
20/08:30am 15.1 11.2 14.4 96 0.4 SSW 28 35 15 19 1009.7 1009.6 14.4
20/08:00am 15.1 10.7 14.2 94 0.5 SSW 30 39 16 21 1009.3 1009.2 14.0
20/07:30am 15.1 11.4 14.0 93 0.6 SSW 26 32 14 17 1009.1 1009.0 13.8
20/07:00am 15.1 11.0 13.9 92 0.7 SSW 28 39 15 21 1008.8 1008.7 13.2
20/06:30am 15.2 11.5 13.8 91 0.8 SSW 26 41 14 22 1008.6 1008.5 13.0
20/06:13am 15.4 10.6 14.0 91 0.8 SSW 32 44 17 24 1008.4 1008.3 13.0
20/06:02am 15.4 12.2 14.2 92 0.7 SSW 24 32 13 17 1008.3 1008.2 13.0
20/06:00am 15.5 12.2 14.1 91 0.8 SSW 24 32 13 17 1008.3 1008.2 13.0
20/05:30am 15.4 11.1 14.3 93 0.6 SSW 30 39 16 21 1008.0 1007.9 13.0
20/05:25am 15.4 11.5 14.3 93 0.6 SSW 28 39 15 21 1008.0 1007.9 13.0
20/05:00am 15.6 12.1 14.4 93 0.7 SSW 26 35 14 19 1007.9 1007.8 13.0
20/04:30am 15.8 12.7 14.4 91 0.8 SSW 24 37 13 20 1007.8 1007.7 13.0
20/04:22am 15.8 12.7 14.6 93 0.7 SSW 24 33 13 18 1007.7 1007.6 13.0
20/04:05am 15.7 11.9 14.7 94 0.6 SSW 28 39 15 21 1007.6 1007.5 13.0
20/04:00am 15.7 11.9 14.7 94 0.6 SSW 28 39 15 21 1007.6 1007.5 13.0
20/03:35am 15.9 12.2 14.9 94 0.6 SSW 28 39 15 21 1007.7 1007.6 12.8
20/03:30am 16.0 11.9 15.0 94 0.6 SSW 30 39 16 21 1007.7 1007.6 12.8
20/03:14am 16.1 13.2 15.1 94 0.6 SSW 24 32 13 17 1007.7 1007.6 12.8
20/03:03am 16.1 12.4 15.1 94 0.6 SSW 28 39 15 21 1007.5 1007.4 12.8
20/03:00am 16.1 12.8 15.1 94 0.6 SSW 26 33 14 18 1007.6 1007.5 12.8
20/02:46am 16.0 12.3 15.1 94 0.5 SSW 28 39 15 21 1007.6 1007.5 12.8
20/02:30am 16.3 13.1 15.3 94 0.6 SSW 26 37 14 20 1007.8 1007.7 12.6
20/02:00am 16.2 12.2 15.3 94 0.5 SSW 30 39 16 21 1007.8 1007.7 12.2
20/01:30am 16.6 14.0 15.8 95 0.5 SSW 24 32 13 17 1008.0 1007.9 11.6
20/01:19am 16.8 14.5 15.8 94 0.6 SSW 22 30 12 16 1008.1 1008.0 11.2
20/01:00am 16.9 15.3 15.9 94 0.6 SSW 19 24 10 13 1008.3 1008.2 11.2
20/12:30am 17.0 15.2 16.0 94 0.6 SSW 20 30 11 16 1008.3 1008.2 11.2
20/12:00am 16.9 14.6 15.7 93 0.7 SW 22 30 12 16 1008.2 1008.1 11.2
 
Date/Time
CDT
Temp
°C
App
Temp
°C
Dew
Point
°C
Rel
Hum
%
Delta-T
°C
Wind Press
QNH
hPa
Press
MSL
hPa
Rain since
9am
mm
Dir  Spd
km/h
Gust
km/h
Spd
kts
Gust
kts
19/11:30pm 16.7 13.3 15.7 94 0.6 SSW 28 35 15 19 1008.3 1008.2 11.2
19/11:15pm 16.6 13.2 15.8 95 0.5 SSW 28 41 15 22 1008.3 1008.2 11.2
19/11:00pm 16.0 13.1 15.1 94 0.5 SSW 24 46 13 25 1008.3 1008.2 11.0
19/10:59pm 15.9 13.0 15.0 94 0.5 SW 24 46 13 25 1008.3 1008.2 11.0
19/10:52pm 15.9 12.2 15.0 94 0.5 SW 28 46 15 25 1008.3 1008.2 9.4
19/10:39pm 16.1 12.4 15.1 94 0.6 SW 28 39 15 21 1008.5 1008.4 4.4
19/10:30pm 16.2 12.5 15.0 93 0.7 SW 28 35 15 19 1008.6 1008.5 2.2
19/10:19pm 16.4 12.7 15.0 91 0.8 SW 28 37 15 20 1008.7 1008.6 1.6
19/10:06pm 16.4 11.9 14.8 90 0.9 SW 32 39 17 21 1008.8 1008.7 1.6
19/10:00pm 16.5 12.0 14.9 90 0.9 SW 32 43 17 23 1008.8 1008.7 1.6
19/09:47pm 16.6 12.9 15.1 91 0.9 SW 28 37 15 20 1008.9 1008.8 1.4
19/09:30pm 16.6 12.6 15.1 91 0.9 SW 30 39 16 21 1008.9 1008.8 1.4
19/09:10pm 16.5 12.4 14.9 90 0.9 SW 30 37 16 20 1008.7 1008.6 1.0
19/09:00pm 16.5 11.9 14.6 88 1.1 SW 32 41 17 22 1008.6 1008.5 1.0
19/08:30pm 16.8 13.5 15.1 90 1.0 SW 26 35 14 19 1008.5 1008.4 1.0
19/08:24pm 16.6 13.7 15.1 91 0.9 WSW 24 35 13 19 1008.5 1008.4 1.0
19/08:02pm 16.7 13.8 15.0 90 1.0 WSW 24 32 13 17 1008.4 1008.3 1.0
19/08:00pm 16.7 13.7 14.8 88 1.1 WSW 24 32 13 17 1008.3 1008.2 1.0
19/07:43pm 16.9 12.3 14.6 86 1.3 WSW 32 41 17 22 1008.2 1008.1 1.0
19/07:30pm 18.0 12.4 13.4 74 2.6 WSW 35 44 19 24 1007.8 1007.7 0.4
19/07:00pm 18.8 15.2 13.0 69 3.3 WSW 24 33 13 18 1007.5 1007.4 0.4
19/06:30pm 19.3 13.4 12.3 64 3.9 SW 35 44 19 24 1007.5 1007.4 0.4
19/06:00pm 20.2 14.2 12.0 59 4.6 SW 35 43 19 23 1007.5 1007.4 0.4
19/05:30pm 20.5 14.5 10.2 51 5.6 SSW 32 41 17 22 1007.5 1007.4 0.4
19/05:00pm 21.2 15.5 9.9 48 6.1 SSW 30 39 16 21 1007.5 1007.4 0.4
19/04:30pm 22.1 15.3 9.3 44 6.9 SW 35 46 19 25 1007.3 1007.1 0.4
19/04:00pm 21.5 14.8 9.6 46 6.4 SW 35 44 19 24 1007.5 1007.4 0.4
19/03:30pm 22.8 16.3 8.8 40 7.5 SW 33 43 18 23 1007.4 1007.2 0.4
19/03:00pm 22.4 16.5 9.2 43 7.1 SSW 30 44 16 24 1007.7 1007.6 0.4
19/02:30pm 20.3 15.7 11.0 55 5.1 SSW 26 37 14 20 1008.2 1008.1 0.4
19/02:00pm 20.5 16.2 10.8 53 5.3 SSW 24 37 13 20 1008.4 1008.3 0.4
19/01:30pm 20.1 16.0 11.4 57 4.8 SSW 24 32 13 17 1008.7 1008.6 0.4
19/01:00pm 18.3 13.9 11.6 65 3.7 SSW 26 32 14 17 1009.0 1008.9 0.4
19/12:30pm 17.5 13.4 13.8 79 2.1 SW 28 33 15 18 1009.1 1009.0 0.4
19/12:00pm 17.0 14.5 14.0 82 1.7 SSW 20 28 11 15 1008.6 1008.5 0.2
19/11:30am 16.9 14.5 13.7 81 1.8 SSW 19 26 10 14 1009.1 1009.0 0.2
19/11:00am 18.5 14.4 11.4 63 3.9 S 24 33 13 18 1008.5 1008.4 0.0
19/10:30am 19.1 15.6 10.8 58 4.5 SSW 20 28 11 15 1009.6 1009.5 0.0
19/10:00am 19.1 14.5 11.0 59 4.4 SSW 26 32 14 17 1009.0 1008.9 0.0
19/09:30am 19.4 15.0 11.6 60 4.3 SSW 26 33 14 18 1009.0 1008.9 0.0
19/09:00am 19.1 15.1 11.7 62 4.1 SSW 24 39 13 21 1009.0 1008.9 0.0
19/08:30am 18.1 14.4 12.8 71 3.0 SW 24 32 13 17 1008.9 1008.8 0.0
19/08:00am 17.7 15.0 12.9 73 2.7 WSW 19 26 10 14 1008.8 1008.7 0.0
19/07:30am 16.1 14.5 12.9 81 1.8 SW 13 17 7 9 1008.7 1008.6 0.0
19/07:00am 15.5 14.3 12.8 84 1.5 SW 11 13 6 7 1008.2 1008.1 0.0
19/06:30am 15.3 13.3 12.8 85 1.4 SW 15 17 8 9 1008.3 1008.2 0.0
19/06:00am 14.9 13.7 12.7 87 1.2 SW 11 15 6 8 1008.2 1008.1 0.0
19/05:30am 14.9 13.2 12.5 85 1.3 SW 13 15 7 8 1008.0 1007.9 0.0
19/05:00am 15.3 13.3 12.6 84 1.5 SW 15 17 8 9 1007.7 1007.6 0.0
19/04:30am 15.7 13.7 12.6 82 1.7 SSW 15 17 8 9 1007.6 1007.5 0.0
19/04:00am 15.8 13.8 12.7 82 1.7 SSW 15 19 8 10 1007.5 1007.4 0.0
19/03:30am 15.9 13.6 13.0 83 1.6 SSW 17 20 9 11 1007.8 1007.7 0.0
19/03:00am 15.8 13.5 12.9 83 1.6 SSW 17 20 9 11 1007.8 1007.7 0.0
19/02:30am 15.5 13.1 12.8 84 1.5 SW 17 19 9 10 1007.7 1007.6 0.0
19/02:00am 15.5 13.1 12.6 83 1.6 SSW 17 20 9 11 1007.7 1007.6 0.0
19/01:30am 15.6 13.6 12.7 83 1.6 SSW 15 19 8 10 1008.2 1008.1 0.0
19/01:00am 15.8 13.4 12.7 82 1.7 SSW 17 20 9 11 1008.4 1008.3 0.0
19/12:30am 16.2 14.2 12.8 80 1.9 SSW 15 20 8 11 1008.6 1008.5 0.0
19/12:00am 16.7 14.0 12.9 78 2.1 SSW 19 24 10 13 1008.9 1008.8 0.0
 
Date/Time
CDT
Temp
°C
App
Temp
°C
Dew
Point
°C
Rel
Hum
%
Delta-T
°C
Wind Press
QNH
hPa
Press
MSL
hPa
Rain since
9am
mm
Dir  Spd
km/h
Gust
km/h
Spd
kts
Gust
kts
18/11:30pm 16.6 13.8 12.6 77 2.2 SSW 19 24 10 13 1009.1 1009.0 0.0
18/11:00pm 16.4 14.3 12.4 77 2.2 SSW 15 19 8 10 1009.2 1009.1 0.0
18/10:30pm 16.6 13.7 12.4 76 2.3 SSW 19 24 10 13 1009.2 1009.1 0.0
18/10:00pm 16.9 13.9 11.8 72 2.8 SSW 19 26 10 14 1009.2 1009.1 0.0
18/09:30pm 17.3 13.2 11.6 69 3.1 SSW 24 32 13 17 1008.9 1008.8 0.0
18/09:00pm 17.8 13.8 11.8 68 3.3 SSW 24 33 13 18 1008.5 1008.4 0.0
18/08:30pm 18.6 13.6 10.9 61 4.2 SSW 28 37 15 20 1008.1 1008.0 0.0
18/08:00pm 19.9 13.3 8.7 48 5.9 SSW 33 43 18 23 1007.8 1007.7 0.0
18/07:30pm 21.0 15.0 8.5 44 6.6 SSW 30 39 16 21 1007.6 1007.5 0.0
18/07:00pm 22.4 15.9 8.2 40 7.5 SSW 32 39 17 21 1007.2 1007.0 0.0
18/06:30pm 23.4 17.5 8.9 39 7.8 SSW 30 41 16 22 1006.9 1006.7 0.0
18/06:00pm 24.7 19.2 9.3 37 8.4 SSW 28 35 15 19 1006.7 1006.5 0.0
18/05:30pm 25.1 19.8 9.7 37 8.5 SSW 28 39 15 21 1006.6 1006.4 0.0
18/05:00pm 25.7 20.0 9.8 36 8.8 SSW 30 41 16 22 1006.6 1006.4 0.0
18/04:30pm 26.7 21.5 10.3 35 9.2 SSW 28 39 15 21 1006.5 1006.3 0.0
18/04:00pm 27.8 23.2 9.5 31 10.2 S 24 39 13 21 1006.4 1006.2 0.0
18/03:30pm 27.9 22.7 7.2 27 11.1 S 24 41 13 22 1006.6 1006.4 0.0
18/03:00pm 27.0 24.0 7.9 30 10.3 SSE 13 26 7 14 1006.9 1006.7 0.0
18/02:30pm 26.6 24.2 7.0 28 10.4 N 9 15 5 8 1007.3 1007.1 0.0
18/02:00pm 25.5 23.1 7.1 31 9.7 NW 9 17 5 9 1008.0 1007.9 0.0
18/01:30pm 25.0 22.3 7.4 32 9.3 NNE 11 20 6 11 1008.5 1008.4 0.0
18/01:00pm 25.4 22.9 6.7 30 9.8 E 9 19 5 10 1009.1 1009.0 0.0
18/12:30pm 24.5 22.4 8.2 35 8.7 SSE 9 17 5 9 1009.5 1009.4 0.0
18/12:00pm 23.1 21.3 9.5 42 7.4 S 9 15 5 8 1009.9 1009.8 0.0
18/11:30am 22.1 20.4 9.7 45 6.7 NNE 9 13 5 7 1010.3 1010.2 0.0
18/11:00am 21.2 19.0 9.2 46 6.4 SE 11 15 6 8 1010.6 1010.5 0.0
18/10:30am 20.4 19.0 10.9 54 5.2 SSE 9 15 5 8 1010.8 1010.7 0.0
18/10:00am 18.8 17.9 12.6 67 3.5 SSW 9 17 5 9 1011.0 1010.9 0.0
18/09:34am 17.5 16.2 12.5 72 2.8 SSW 11 17 6 9 1011.5 1011.3 0.0
18/09:30am 17.5 15.8 12.3 71 2.9 SSW 13 17 7 9 1011.7 1011.5 0.0
18/09:00am 17.0 15.3 12.3 74 2.6 SSE 13 19 7 10 1011.6 1011.4 0.0
18/08:30am 16.3 14.6 12.5 78 2.1 SSE 13 17 7 9 1011.8 1011.6 0.0
18/08:08am 15.0 14.5 12.6 85 1.3 S 7 9 4 5 1011.8 1011.6 0.0
18/08:00am 14.6 14.0 12.4 87 1.2 S 7 9 4 5 1011.8 1011.6 0.0
18/07:30am 13.5 14.1 12.0 91 0.8 CALM 0 0 0 0 1011.7 1011.5 0.0
18/07:00am 12.6 13.0 11.3 92 0.7 CALM 0 0 0 0 1011.8 1011.6 0.0
18/06:30am 12.3 11.5 11.2 93 0.6 SW 6 7 3 4 1011.5 1011.3 0.0
18/06:00am 11.4 11.6 10.4 94 0.5 CALM 0 2 0 1 1011.1 1011.0 0.0
18/05:30am 12.1 10.3 11.0 93 0.6 SSW 11 13 6 7 1010.8 1010.7 0.0
18/05:00am 12.6 10.9 11.3 92 0.7 SW 11 15 6 8 1010.9 1010.8 0.0

Latest Capital City Observations: Canberra | Sydney | Melbourne | Brisbane | Adelaide | Perth | Hobart | Darwin

Other formats

Comma delimited format used in spreadsheet applications
http://www.bom.gov.au/fwo/IDS60901/IDS60901.95818.axf

JavaScript Object Notation format (JSON) in row-major order
http://www.bom.gov.au/fwo/IDS60901/IDS60901.95818.json

Data quality

Most of these data are generated automatically and are frequently updated. Quality checks on data are not normally performed. It is possible for incorrect values to appear. Refer to information at About Latest Weather Observations and please check the disclaimer before using these data.